sensor_id;sensor_type;location;lat;lon;timestamp;temperature;humidity
76897;SHT30;65856;52.178;21.176;2024-01-16T00:01:09;-0.39;70.91
76897;SHT30;65856;52.178;21.176;2024-01-16T00:03:34;-0.41;70.75
76897;SHT30;65856;52.178;21.176;2024-01-16T00:06:00;-0.44;70.65
76897;SHT30;65856;52.178;21.176;2024-01-16T00:08:26;-0.44;70.93
76897;SHT30;65856;52.178;21.176;2024-01-16T00:10:52;-0.45;70.87
76897;SHT30;65856;52.178;21.176;2024-01-16T00:13:17;-0.47;70.95
76897;SHT30;65856;52.178;21.176;2024-01-16T00:15:43;-0.47;70.82
76897;SHT30;65856;52.178;21.176;2024-01-16T00:18:08;-0.49;70.77
76897;SHT30;65856;52.178;21.176;2024-01-16T00:20:34;-0.50;71.11
76897;SHT30;65856;52.178;21.176;2024-01-16T00:23:00;-0.50;71.23
76897;SHT30;65856;52.178;21.176;2024-01-16T00:25:25;-0.51;71.19
76897;SHT30;65856;52.178;21.176;2024-01-16T00:27:51;-0.51;71.12
76897;SHT30;65856;52.178;21.176;2024-01-16T00:30:16;-0.51;71.16
76897;SHT30;65856;52.178;21.176;2024-01-16T00:32:42;-0.51;71.24
76897;SHT30;65856;52.178;21.176;2024-01-16T00:35:08;-0.49;71.40
76897;SHT30;65856;52.178;21.176;2024-01-16T00:37:36;-0.49;71.40
76897;SHT30;65856;52.178;21.176;2024-01-16T00:40:03;-0.50;71.40
76897;SHT30;65856;52.178;21.176;2024-01-16T00:42:29;-0.52;71.27
76897;SHT30;65856;52.178;21.176;2024-01-16T00:44:57;-0.53;71.36
76897;SHT30;65856;52.178;21.176;2024-01-16T00:47:23;-0.54;71.42
76897;SHT30;65856;52.178;21.176;2024-01-16T00:49:49;-0.55;71.53
76897;SHT30;65856;52.178;21.176;2024-01-16T00:52:15;-0.59;71.47
76897;SHT30;65856;52.178;21.176;2024-01-16T00:54:40;-0.61;71.67
76897;SHT30;65856;52.178;21.176;2024-01-16T00:57:07;-0.60;71.76
76897;SHT30;65856;52.178;21.176;2024-01-16T00:59:32;-0.57;71.77
76897;SHT30;65856;52.178;21.176;2024-01-16T01:01:58;-0.57;71.83
76897;SHT30;65856;52.178;21.176;2024-01-16T01:04:23;-0.58;71.81
76897;SHT30;65856;52.178;21.176;2024-01-16T01:06:48;-0.60;71.86
76897;SHT30;65856;52.178;21.176;2024-01-16T01:09:14;-0.60;71.90
76897;SHT30;65856;52.178;21.176;2024-01-16T01:11:39;-0.61;71.96
76897;SHT30;65856;52.178;21.176;2024-01-16T01:14:04;-0.61;72.03
76897;SHT30;65856;52.178;21.176;2024-01-16T01:16:30;-0.59;71.97
76897;SHT30;65856;52.178;21.176;2024-01-16T01:18:56;-0.59;71.93
76897;SHT30;65856;52.178;21.176;2024-01-16T01:21:22;-0.59;71.94
76897;SHT30;65856;52.178;21.176;2024-01-16T01:23:47;-0.59;71.77
76897;SHT30;65856;52.178;21.176;2024-01-16T01:26:13;-0.60;71.57
76897;SHT30;65856;52.178;21.176;2024-01-16T01:28:43;-0.64;71.27
76897;SHT30;65856;52.178;21.176;2024-01-16T01:31:10;-0.69;71.04
76897;SHT30;65856;52.178;21.176;2024-01-16T01:33:36;-0.73;71.03
76897;SHT30;65856;52.178;21.176;2024-01-16T01:36:01;-0.78;70.89
76897;SHT30;65856;52.178;21.176;2024-01-16T01:38:27;-0.82;70.90
76897;SHT30;65856;52.178;21.176;2024-01-16T01:40:53;-0.83;71.06
76897;SHT30;65856;52.178;21.176;2024-01-16T01:43:21;-0.84;71.19
76897;SHT30;65856;52.178;21.176;2024-01-16T01:46:04;-0.83;71.35
76897;SHT30;65856;52.178;21.176;2024-01-16T01:48:35;-0.80;71.49
76897;SHT30;65856;52.178;21.176;2024-01-16T01:51:02;-0.82;71.46
76897;SHT30;65856;52.178;21.176;2024-01-16T01:53:28;-0.82;71.72
76897;SHT30;65856;52.178;21.176;2024-01-16T01:55:56;-0.81;71.80
76897;SHT30;65856;52.178;21.176;2024-01-16T01:58:22;-0.78;71.88
76897;SHT30;65856;52.178;21.176;2024-01-16T02:00:48;-0.76;71.94
76897;SHT30;65856;52.178;21.176;2024-01-16T02:03:13;-0.73;72.03
76897;SHT30;65856;52.178;21.176;2024-01-16T02:05:39;-0.70;72.08
76897;SHT30;65856;52.178;21.176;2024-01-16T02:08:04;-0.70;72.00
76897;SHT30;65856;52.178;21.176;2024-01-16T02:10:31;-0.70;71.84
76897;SHT30;65856;52.178;21.176;2024-01-16T02:12:57;-0.71;71.78
76897;SHT30;65856;52.178;21.176;2024-01-16T02:15:23;-0.69;71.67
76897;SHT30;65856;52.178;21.176;2024-01-16T02:17:49;-0.69;71.42
76897;SHT30;65856;52.178;21.176;2024-01-16T02:20:14;-0.70;71.29
76897;SHT30;65856;52.178;21.176;2024-01-16T02:22:40;-0.71;70.77
76897;SHT30;65856;52.178;21.176;2024-01-16T02:25:11;-0.74;70.37
76897;SHT30;65856;52.178;21.176;2024-01-16T02:27:36;-0.80;69.55
76897;SHT30;65856;52.178;21.176;2024-01-16T02:30:02;-0.83;69.40
76897;SHT30;65856;52.178;21.176;2024-01-16T02:32:28;-0.88;68.86
76897;SHT30;65856;52.178;21.176;2024-01-16T02:34:53;-0.96;68.24
76897;SHT30;65856;52.178;21.176;2024-01-16T02:37:19;-1.00;68.07
76897;SHT30;65856;52.178;21.176;2024-01-16T02:39:44;-1.02;67.93
76897;SHT30;65856;52.178;21.176;2024-01-16T02:42:10;-1.07;67.73
76897;SHT30;65856;52.178;21.176;2024-01-16T02:44:35;-1.12;67.47
76897;SHT30;65856;52.178;21.176;2024-01-16T02:47:01;-1.15;67.31
76897;SHT30;65856;52.178;21.176;2024-01-16T02:49:26;-1.16;67.43
76897;SHT30;65856;52.178;21.176;2024-01-16T02:51:52;-1.20;67.20
76897;SHT30;65856;52.178;21.176;2024-01-16T02:54:17;-1.24;67.06
76897;SHT30;65856;52.178;21.176;2024-01-16T02:56:43;-1.27;67.16
76897;SHT30;65856;52.178;21.176;2024-01-16T02:59:08;-1.28;67.02
76897;SHT30;65856;52.178;21.176;2024-01-16T03:01:34;-1.28;66.84
76897;SHT30;65856;52.178;21.176;2024-01-16T03:03:59;-1.31;66.62
76897;SHT30;65856;52.178;21.176;2024-01-16T03:06:25;-1.32;66.71
76897;SHT30;65856;52.178;21.176;2024-01-16T03:08:51;-1.34;66.56
76897;SHT30;65856;52.178;21.176;2024-01-16T03:11:17;-1.38;66.53
76897;SHT30;65856;52.178;21.176;2024-01-16T03:13:42;-1.40;66.84
76897;SHT30;65856;52.178;21.176;2024-01-16T03:16:09;-1.41;66.88
76897;SHT30;65856;52.178;21.176;2024-01-16T03:18:36;-1.39;66.96
76897;SHT30;65856;52.178;21.176;2024-01-16T03:21:03;-1.42;67.14
76897;SHT30;65856;52.178;21.176;2024-01-16T03:23:32;-1.43;67.17
76897;SHT30;65856;52.178;21.176;2024-01-16T03:25:58;-1.45;67.33
76897;SHT30;65856;52.178;21.176;2024-01-16T03:28:23;-1.42;67.50
76897;SHT30;65856;52.178;21.176;2024-01-16T03:30:49;-1.39;67.51
76897;SHT30;65856;52.178;21.176;2024-01-16T03:33:14;-1.38;67.47
76897;SHT30;65856;52.178;21.176;2024-01-16T03:35:39;-1.38;67.29
76897;SHT30;65856;52.178;21.176;2024-01-16T03:38:05;-1.38;67.33
76897;SHT30;65856;52.178;21.176;2024-01-16T03:40:30;-1.40;67.27
76897;SHT30;65856;52.178;21.176;2024-01-16T03:42:59;-1.45;67.32
76897;SHT30;65856;52.178;21.176;2024-01-16T03:45:25;-1.49;67.40
76897;SHT30;65856;52.178;21.176;2024-01-16T03:47:51;-1.52;67.52
76897;SHT30;65856;52.178;21.176;2024-01-16T03:50:16;-1.53;67.60
76897;SHT30;65856;52.178;21.176;2024-01-16T03:52:41;-1.54;67.48
76897;SHT30;65856;52.178;21.176;2024-01-16T03:55:07;-1.59;67.59
76897;SHT30;65856;52.178;21.176;2024-01-16T03:57:33;-1.63;67.50
76897;SHT30;65856;52.178;21.176;2024-01-16T03:59:58;-1.70;67.48
76897;SHT30;65856;52.178;21.176;2024-01-16T04:02:23;-1.73;67.63
76897;SHT30;65856;52.178;21.176;2024-01-16T04:04:49;-1.72;67.82
76897;SHT30;65856;52.178;21.176;2024-01-16T04:07:14;-1.73;67.90
76897;SHT30;65856;52.178;21.176;2024-01-16T04:09:41;-1.75;67.84
76897;SHT30;65856;52.178;21.176;2024-01-16T04:12:08;-1.77;67.88
76897;SHT30;65856;52.178;21.176;2024-01-16T04:14:33;-1.78;67.90
76897;SHT30;65856;52.178;21.176;2024-01-16T04:16:59;-1.83;67.93
76897;SHT30;65856;52.178;21.176;2024-01-16T04:19:24;-1.86;68.02
76897;SHT30;65856;52.178;21.176;2024-01-16T04:21:49;-1.86;68.20
76897;SHT30;65856;52.178;21.176;2024-01-16T04:24:15;-1.84;68.32
76897;SHT30;65856;52.178;21.176;2024-01-16T04:26:40;-1.83;68.47
76897;SHT30;65856;52.178;21.176;2024-01-16T04:29:06;-1.83;68.40
76897;SHT30;65856;52.178;21.176;2024-01-16T04:31:32;-1.84;68.17
76897;SHT30;65856;52.178;21.176;2024-01-16T04:34:04;-1.84;68.25
76897;SHT30;65856;52.178;21.176;2024-01-16T04:36:29;-1.85;68.14
76897;SHT30;65856;52.178;21.176;2024-01-16T04:38:54;-1.90;67.93
76897;SHT30;65856;52.178;21.176;2024-01-16T04:41:20;-1.97;67.61
76897;SHT30;65856;52.178;21.176;2024-01-16T04:43:45;-2.02;67.71
76897;SHT30;65856;52.178;21.176;2024-01-16T04:46:11;-2.04;67.74
76897;SHT30;65856;52.178;21.176;2024-01-16T04:48:36;-2.06;67.59
76897;SHT30;65856;52.178;21.176;2024-01-16T04:51:01;-2.13;67.34
76897;SHT30;65856;52.178;21.176;2024-01-16T04:53:27;-2.16;67.28
76897;SHT30;65856;52.178;21.176;2024-01-16T04:55:52;-2.20;67.26
76897;SHT30;65856;52.178;21.176;2024-01-16T04:58:18;-2.21;67.24
76897;SHT30;65856;52.178;21.176;2024-01-16T05:00:43;-2.27;67.08
76897;SHT30;65856;52.178;21.176;2024-01-16T05:03:09;-2.32;67.02
76897;SHT30;65856;52.178;21.176;2024-01-16T05:05:34;-2.35;67.16
76897;SHT30;65856;52.178;21.176;2024-01-16T05:08:03;-2.37;67.27
76897;SHT30;65856;52.178;21.176;2024-01-16T05:10:28;-2.37;67.34
76897;SHT30;65856;52.178;21.176;2024-01-16T05:12:53;-2.36;67.39
76897;SHT30;65856;52.178;21.176;2024-01-16T05:15:19;-2.37;67.23
76897;SHT30;65856;52.178;21.176;2024-01-16T05:17:45;-2.38;67.03
76897;SHT30;65856;52.178;21.176;2024-01-16T05:20:10;-2.43;67.03
76897;SHT30;65856;52.178;21.176;2024-01-16T05:22:36;-2.49;67.10
76897;SHT30;65856;52.178;21.176;2024-01-16T05:25:04;-2.53;67.15
76897;SHT30;65856;52.178;21.176;2024-01-16T05:27:32;-2.60;67.28
76897;SHT30;65856;52.178;21.176;2024-01-16T05:29:58;-2.58;67.55
76897;SHT30;65856;52.178;21.176;2024-01-16T05:32:23;-2.56;67.71
76897;SHT30;65856;52.178;21.176;2024-01-16T05:34:48;-2.54;68.25
76897;SHT30;65856;52.178;21.176;2024-01-16T05:37:14;-2.54;67.91
76897;SHT30;65856;52.178;21.176;2024-01-16T05:39:39;-2.53;67.92
76897;SHT30;65856;52.178;21.176;2024-01-16T05:42:05;-2.49;68.36
76897;SHT30;65856;52.178;21.176;2024-01-16T05:44:30;-2.37;68.49
76897;SHT30;65856;52.178;21.176;2024-01-16T05:46:55;-2.32;68.32
76897;SHT30;65856;52.178;21.176;2024-01-16T05:49:21;-2.22;68.17
76897;SHT30;65856;52.178;21.176;2024-01-16T05:51:46;-2.23;68.08
76897;SHT30;65856;52.178;21.176;2024-01-16T05:54:12;-2.24;68.07
76897;SHT30;65856;52.178;21.176;2024-01-16T05:56:37;-2.23;67.99
76897;SHT30;65856;52.178;21.176;2024-01-16T05:59:02;-2.23;67.95
76897;SHT30;65856;52.178;21.176;2024-01-16T06:01:28;-2.25;67.97
76897;SHT30;65856;52.178;21.176;2024-01-16T06:03:53;-2.26;67.97
76897;SHT30;65856;52.178;21.176;2024-01-16T06:06:19;-2.28;67.77
76897;SHT30;65856;52.178;21.176;2024-01-16T06:08:44;-2.34;67.70
76897;SHT30;65856;52.178;21.176;2024-01-16T06:11:10;-2.36;67.67
76897;SHT30;65856;52.178;21.176;2024-01-16T06:13:35;-2.42;67.58
76897;SHT30;65856;52.178;21.176;2024-01-16T06:16:01;-2.45;67.67
76897;SHT30;65856;52.178;21.176;2024-01-16T06:18:28;-2.44;67.90
76897;SHT30;65856;52.178;21.176;2024-01-16T06:20:53;-2.42;68.94
76897;SHT30;65856;52.178;21.176;2024-01-16T06:23:18;-2.37;68.75
76897;SHT30;65856;52.178;21.176;2024-01-16T06:25:44;-2.41;67.95
76897;SHT30;65856;52.178;21.176;2024-01-16T06:28:09;-2.44;67.88
76897;SHT30;65856;52.178;21.176;2024-01-16T06:30:35;-2.47;67.87
76897;SHT30;65856;52.178;21.176;2024-01-16T06:33:00;-2.49;67.80
76897;SHT30;65856;52.178;21.176;2024-01-16T06:35:25;-2.53;67.82
76897;SHT30;65856;52.178;21.176;2024-01-16T06:37:51;-2.56;67.82
76897;SHT30;65856;52.178;21.176;2024-01-16T06:40:16;-2.57;67.75
76897;SHT30;65856;52.178;21.176;2024-01-16T06:42:42;-2.57;67.93
76897;SHT30;65856;52.178;21.176;2024-01-16T06:45:07;-2.56;67.91
76897;SHT30;65856;52.178;21.176;2024-01-16T06:47:33;-2.56;67.94
76897;SHT30;65856;52.178;21.176;2024-01-16T06:49:58;-2.54;68.06
76897;SHT30;65856;52.178;21.176;2024-01-16T06:52:24;-2.53;68.02
76897;SHT30;65856;52.178;21.176;2024-01-16T06:54:49;-2.55;67.81
76897;SHT30;65856;52.178;21.176;2024-01-16T06:57:15;-2.57;67.78
76897;SHT30;65856;52.178;21.176;2024-01-16T06:59:40;-2.55;67.93
76897;SHT30;65856;52.178;21.176;2024-01-16T07:02:06;-2.56;67.91
76897;SHT30;65856;52.178;21.176;2024-01-16T07:04:33;-2.62;67.64
76897;SHT30;65856;52.178;21.176;2024-01-16T07:06:58;-2.67;67.66
76897;SHT30;65856;52.178;21.176;2024-01-16T07:09:24;-2.66;67.62
76897;SHT30;65856;52.178;21.176;2024-01-16T07:11:52;-2.66;67.55
76897;SHT30;65856;52.178;21.176;2024-01-16T07:14:18;-2.63;67.48
76897;SHT30;65856;52.178;21.176;2024-01-16T07:16:43;-2.60;67.58
76897;SHT30;65856;52.178;21.176;2024-01-16T07:19:09;-2.56;67.40
76897;SHT30;65856;52.178;21.176;2024-01-16T07:21:34;-2.53;67.30
76897;SHT30;65856;52.178;21.176;2024-01-16T07:24:00;-2.53;67.19
76897;SHT30;65856;52.178;21.176;2024-01-16T07:26:25;-2.51;67.08
76897;SHT30;65856;52.178;21.176;2024-01-16T07:28:51;-2.45;67.15
76897;SHT30;65856;52.178;21.176;2024-01-16T07:31:16;-2.43;66.75
76897;SHT30;65856;52.178;21.176;2024-01-16T07:33:42;-2.41;66.92
76897;SHT30;65856;52.178;21.176;2024-01-16T07:36:08;-2.25;66.68
76897;SHT30;65856;52.178;21.176;2024-01-16T07:38:34;-2.00;66.13
76897;SHT30;65856;52.178;21.176;2024-01-16T07:41:01;-1.72;65.64
76897;SHT30;65856;52.178;21.176;2024-01-16T07:43:27;-1.52;64.97
76897;SHT30;65856;52.178;21.176;2024-01-16T07:45:52;-1.50;64.36
76897;SHT30;65856;52.178;21.176;2024-01-16T07:48:17;-1.54;64.33
76897;SHT30;65856;52.178;21.176;2024-01-16T07:50:43;-1.15;64.20
76897;SHT30;65856;52.178;21.176;2024-01-16T07:53:10;-0.46;63.20
76897;SHT30;65856;52.178;21.176;2024-01-16T07:55:36;0.04;61.94
76897;SHT30;65856;52.178;21.176;2024-01-16T07:58:02;0.80;60.35
76897;SHT30;65856;52.178;21.176;2024-01-16T08:00:29;1.35;59.08
76897;SHT30;65856;52.178;21.176;2024-01-16T08:02:54;1.40;59.08
76897;SHT30;65856;52.178;21.176;2024-01-16T08:05:19;1.30;58.56
76897;SHT30;65856;52.178;21.176;2024-01-16T08:07:46;1.30;58.61
76897;SHT30;65856;52.178;21.176;2024-01-16T08:10:12;1.35;57.89
76897;SHT30;65856;52.178;21.176;2024-01-16T08:12:37;1.34;57.40
76897;SHT30;65856;52.178;21.176;2024-01-16T08:15:04;1.32;56.71
76897;SHT30;65856;52.178;21.176;2024-01-16T08:17:32;1.26;56.57
76897;SHT30;65856;52.178;21.176;2024-01-16T08:19:58;1.30;56.86
76897;SHT30;65856;52.178;21.176;2024-01-16T08:22:23;1.33;56.05
76897;SHT30;65856;52.178;21.176;2024-01-16T08:24:48;1.31;55.72
76897;SHT30;65856;52.178;21.176;2024-01-16T08:27:14;1.36;55.83
76897;SHT30;65856;52.178;21.176;2024-01-16T08:29:41;1.47;55.49
76897;SHT30;65856;52.178;21.176;2024-01-16T08:32:06;1.57;55.36
76897;SHT30;65856;52.178;21.176;2024-01-16T08:34:31;1.70;54.86
76897;SHT30;65856;52.178;21.176;2024-01-16T08:36:57;1.78;54.49
76897;SHT30;65856;52.178;21.176;2024-01-16T08:39:22;1.82;53.88
76897;SHT30;65856;52.178;21.176;2024-01-16T08:41:49;1.83;53.81
76897;SHT30;65856;52.178;21.176;2024-01-16T08:44:15;1.87;53.68
76897;SHT30;65856;52.178;21.176;2024-01-16T08:46:40;1.90;53.41
76897;SHT30;65856;52.178;21.176;2024-01-16T08:49:05;1.97;53.58
76897;SHT30;65856;52.178;21.176;2024-01-16T08:51:31;2.12;53.37
76897;SHT30;65856;52.178;21.176;2024-01-16T08:53:56;2.21;52.72
76897;SHT30;65856;52.178;21.176;2024-01-16T08:56:22;2.17;52.54
76897;SHT30;65856;52.178;21.176;2024-01-16T08:58:47;2.22;53.21
76897;SHT30;65856;52.178;21.176;2024-01-16T09:01:12;2.22;52.41
76897;SHT30;65856;52.178;21.176;2024-01-16T09:03:38;2.25;52.31
76897;SHT30;65856;52.178;21.176;2024-01-16T09:06:03;2.23;52.43
76897;SHT30;65856;52.178;21.176;2024-01-16T09:08:29;2.06;52.57
76897;SHT30;65856;52.178;21.176;2024-01-16T09:10:54;2.04;52.39
76897;SHT30;65856;52.178;21.176;2024-01-16T09:13:21;2.14;52.04
76897;SHT30;65856;52.178;21.176;2024-01-16T09:15:48;2.14;51.21
76897;SHT30;65856;52.178;21.176;2024-01-16T09:18:14;2.09;51.07
76897;SHT30;65856;52.178;21.176;2024-01-16T09:20:41;2.08;51.11
76897;SHT30;65856;52.178;21.176;2024-01-16T09:23:07;2.05;50.98
76897;SHT30;65856;52.178;21.176;2024-01-16T09:25:34;2.07;51.36
76897;SHT30;65856;52.178;21.176;2024-01-16T09:28:00;2.15;51.34
76897;SHT30;65856;52.178;21.176;2024-01-16T09:30:26;2.21;51.26
76897;SHT30;65856;52.178;21.176;2024-01-16T09:32:51;2.25;50.54
76897;SHT30;65856;52.178;21.176;2024-01-16T09:35:17;2.19;50.45
76897;SHT30;65856;52.178;21.176;2024-01-16T09:37:42;2.15;50.42
76897;SHT30;65856;52.178;21.176;2024-01-16T09:40:08;2.10;50.30
76897;SHT30;65856;52.178;21.176;2024-01-16T09:42:34;2.00;50.56
76897;SHT30;65856;52.178;21.176;2024-01-16T09:45:02;1.96;50.54
76897;SHT30;65856;52.178;21.176;2024-01-16T09:47:30;2.01;50.90
76897;SHT30;65856;52.178;21.176;2024-01-16T09:50:02;2.06;50.85
76897;SHT30;65856;52.178;21.176;2024-01-16T09:52:28;2.04;50.44
76897;SHT30;65856;52.178;21.176;2024-01-16T09:54:54;1.95;50.02
76897;SHT30;65856;52.178;21.176;2024-01-16T09:57:20;1.86;50.18
76897;SHT30;65856;52.178;21.176;2024-01-16T09:59:50;1.83;50.49
76897;SHT30;65856;52.178;21.176;2024-01-16T10:02:17;1.85;50.40
76897;SHT30;65856;52.178;21.176;2024-01-16T10:04:45;1.84;50.20
76897;SHT30;65856;52.178;21.176;2024-01-16T10:07:12;1.79;49.92
76897;SHT30;65856;52.178;21.176;2024-01-16T10:09:39;1.73;49.81
76897;SHT30;65856;52.178;21.176;2024-01-16T10:12:05;1.72;50.17
76897;SHT30;65856;52.178;21.176;2024-01-16T10:14:32;1.69;50.31
76897;SHT30;65856;52.178;21.176;2024-01-16T10:17:02;1.74;50.47
76897;SHT30;65856;52.178;21.176;2024-01-16T10:19:48;1.81;50.69
76897;SHT30;65856;52.178;21.176;2024-01-16T10:22:20;1.91;50.67
76897;SHT30;65856;52.178;21.176;2024-01-16T10:24:47;1.93;49.97
76897;SHT30;65856;52.178;21.176;2024-01-16T10:27:15;1.89;49.81
76897;SHT30;65856;52.178;21.176;2024-01-16T10:29:54;1.78;49.40
76897;SHT30;65856;52.178;21.176;2024-01-16T10:32:28;1.67;49.83
76897;SHT30;65856;52.178;21.176;2024-01-16T10:35:12;1.71;50.02
76897;SHT30;65856;52.178;21.176;2024-01-16T10:37:52;1.76;49.76
76897;SHT30;65856;52.178;21.176;2024-01-16T10:40:36;1.74;49.99
76897;SHT30;65856;52.178;21.176;2024-01-16T10:43:03;1.83;50.13
76897;SHT30;65856;52.178;21.176;2024-01-16T10:45:30;1.91;49.97
76897;SHT30;65856;52.178;21.176;2024-01-16T10:48:06;2.01;49.95
76897;SHT30;65856;52.178;21.176;2024-01-16T10:50:33;1.98;49.94
76897;SHT30;65856;52.178;21.176;2024-01-16T10:53:03;2.01;49.87
76897;SHT30;65856;52.178;21.176;2024-01-16T10:55:30;2.02;50.09
76897;SHT30;65856;52.178;21.176;2024-01-16T10:58:15;2.09;49.82
76897;SHT30;65856;52.178;21.176;2024-01-16T11:00:41;2.13;49.72
76897;SHT30;65856;52.178;21.176;2024-01-16T11:03:11;2.10;49.88
76897;SHT30;65856;52.178;21.176;2024-01-16T11:05:44;2.08;50.02
76897;SHT30;65856;52.178;21.176;2024-01-16T11:08:11;2.04;50.17
76897;SHT30;65856;52.178;21.176;2024-01-16T11:10:38;1.93;50.45
76897;SHT30;65856;52.178;21.176;2024-01-16T11:13:04;1.90;50.63
76897;SHT30;65856;52.178;21.176;2024-01-16T11:15:31;1.80;50.68
76897;SHT30;65856;52.178;21.176;2024-01-16T11:17:57;1.75;50.80
76897;SHT30;65856;52.178;21.176;2024-01-16T11:20:24;1.71;51.11
76897;SHT30;65856;52.178;21.176;2024-01-16T11:22:51;1.65;51.53
76897;SHT30;65856;52.178;21.176;2024-01-16T11:25:24;1.59;51.05
76897;SHT30;65856;52.178;21.176;2024-01-16T11:28:07;1.52;51.47
76897;SHT30;65856;52.178;21.176;2024-01-16T11:30:38;1.50;51.68
76897;SHT30;65856;52.178;21.176;2024-01-16T11:33:04;1.46;51.74
76897;SHT30;65856;52.178;21.176;2024-01-16T11:35:36;1.49;52.27
76897;SHT30;65856;52.178;21.176;2024-01-16T11:38:04;1.54;52.08
76897;SHT30;65856;52.178;21.176;2024-01-16T11:40:32;1.47;51.97
76897;SHT30;65856;52.178;21.176;2024-01-16T11:42:58;1.37;52.06
76897;SHT30;65856;52.178;21.176;2024-01-16T11:48:13;1.16;52.59
76897;SHT30;65856;52.178;21.176;2024-01-16T11:50:41;1.00;52.67
76897;SHT30;65856;52.178;21.176;2024-01-16T11:53:07;0.83;53.25
76897;SHT30;65856;52.178;21.176;2024-01-16T11:55:34;0.75;53.40
76897;SHT30;65856;52.178;21.176;2024-01-16T12:01:22;0.47;53.72
76897;SHT30;65856;52.178;21.176;2024-01-16T12:06:35;0.34;54.24
76897;SHT30;65856;52.178;21.176;2024-01-16T12:09:11;0.31;54.46
76897;SHT30;65856;52.178;21.176;2024-01-16T12:11:38;0.28;54.68
76897;SHT30;65856;52.178;21.176;2024-01-16T12:14:05;0.23;55.02
76897;SHT30;65856;52.178;21.176;2024-01-16T12:16:30;0.24;55.28
76897;SHT30;65856;52.178;21.176;2024-01-16T12:19:08;0.29;55.43
76897;SHT30;65856;52.178;21.176;2024-01-16T12:21:35;0.26;55.42
76897;SHT30;65856;52.178;21.176;2024-01-16T12:24:04;0.23;55.44
76897;SHT30;65856;52.178;21.176;2024-01-16T12:26:30;0.23;55.68
76897;SHT30;65856;52.178;21.176;2024-01-16T12:28:56;0.22;55.71
76897;SHT30;65856;52.178;21.176;2024-01-16T12:31:22;0.22;55.59
76897;SHT30;65856;52.178;21.176;2024-01-16T12:33:49;0.20;55.47
76897;SHT30;65856;52.178;21.176;2024-01-16T12:36:17;0.18;55.53
76897;SHT30;65856;52.178;21.176;2024-01-16T12:38:43;0.18;55.38
76897;SHT30;65856;52.178;21.176;2024-01-16T12:41:09;0.15;55.34
76897;SHT30;65856;52.178;21.176;2024-01-16T12:43:36;0.10;55.24
76897;SHT30;65856;52.178;21.176;2024-01-16T12:46:02;0.01;55.55
76897;SHT30;65856;52.178;21.176;2024-01-16T12:48:28;-0.06;55.63
76897;SHT30;65856;52.178;21.176;2024-01-16T12:51:03;-0.11;55.73
76897;SHT30;65856;52.178;21.176;2024-01-16T12:53:29;-0.17;56.03
76897;SHT30;65856;52.178;21.176;2024-01-16T12:55:59;-0.22;56.48
76897;SHT30;65856;52.178;21.176;2024-01-16T12:58:34;-0.27;56.38
76897;SHT30;65856;52.178;21.176;2024-01-16T13:01:20;-0.34;56.66
76897;SHT30;65856;52.178;21.176;2024-01-16T13:03:46;-0.35;56.83
76897;SHT30;65856;52.178;21.176;2024-01-16T13:06:16;-0.35;56.92
76897;SHT30;65856;52.178;21.176;2024-01-16T13:08:44;-0.36;56.93
76897;SHT30;65856;52.178;21.176;2024-01-16T13:11:11;-0.39;56.84
76897;SHT30;65856;52.178;21.176;2024-01-16T13:13:36;-0.43;56.83
76897;SHT30;65856;52.178;21.176;2024-01-16T13:16:02;-0.53;56.82
76897;SHT30;65856;52.178;21.176;2024-01-16T13:18:32;-0.55;57.13
76897;SHT30;65856;52.178;21.176;2024-01-16T13:20:59;-0.52;57.26
76897;SHT30;65856;52.178;21.176;2024-01-16T13:23:25;-0.52;57.17
76897;SHT30;65856;52.178;21.176;2024-01-16T13:25:54;-0.53;57.19
76897;SHT30;65856;52.178;21.176;2024-01-16T13:28:20;-0.56;57.21
76897;SHT30;65856;52.178;21.176;2024-01-16T13:30:47;-0.59;57.22
76897;SHT30;65856;52.178;21.176;2024-01-16T13:33:14;-0.64;57.14
76897;SHT30;65856;52.178;21.176;2024-01-16T13:35:44;-0.70;57.22
76897;SHT30;65856;52.178;21.176;2024-01-16T13:38:11;-0.74;57.53
76897;SHT30;65856;52.178;21.176;2024-01-16T13:40:38;-0.73;57.67
76897;SHT30;65856;52.178;21.176;2024-01-16T13:43:04;-0.76;57.37
76897;SHT30;65856;52.178;21.176;2024-01-16T13:45:31;-0.79;57.38
76897;SHT30;65856;52.178;21.176;2024-01-16T13:47:58;-0.84;57.46
76897;SHT30;65856;52.178;21.176;2024-01-16T13:50:23;-0.88;57.59
76897;SHT30;65856;52.178;21.176;2024-01-16T13:52:49;-0.92;57.60
76897;SHT30;65856;52.178;21.176;2024-01-16T13:55:15;-0.96;57.69
76897;SHT30;65856;52.178;21.176;2024-01-16T13:57:41;-0.99;57.77
76897;SHT30;65856;52.178;21.176;2024-01-16T14:00:07;-1.00;57.91
76897;SHT30;65856;52.178;21.176;2024-01-16T14:02:47;-1.02;57.97
76897;SHT30;65856;52.178;21.176;2024-01-16T14:05:14;-1.04;58.06
76897;SHT30;65856;52.178;21.176;2024-01-16T14:07:41;-1.02;58.21
76897;SHT30;65856;52.178;21.176;2024-01-16T14:10:07;-1.00;58.33
76897;SHT30;65856;52.178;21.176;2024-01-16T14:12:40;-0.98;58.31
76897;SHT30;65856;52.178;21.176;2024-01-16T14:15:10;-1.03;58.18
76897;SHT30;65856;52.178;21.176;2024-01-16T14:17:49;-1.07;58.27
76897;SHT30;65856;52.178;21.176;2024-01-16T14:20:17;-1.08;58.32
76897;SHT30;65856;52.178;21.176;2024-01-16T14:22:49;-1.09;58.36
76897;SHT30;65856;52.178;21.176;2024-01-16T14:25:15;-1.11;58.20
76897;SHT30;65856;52.178;21.176;2024-01-16T14:27:44;-1.14;58.24
76897;SHT30;65856;52.178;21.176;2024-01-16T14:30:13;-1.20;58.33
76897;SHT30;65856;52.178;21.176;2024-01-16T14:32:41;-1.25;58.63
76897;SHT30;65856;52.178;21.176;2024-01-16T14:35:09;-1.27;58.77
76897;SHT30;65856;52.178;21.176;2024-01-16T14:37:38;-1.28;59.10
76897;SHT30;65856;52.178;21.176;2024-01-16T14:40:05;-1.31;59.19
76897;SHT30;65856;52.178;21.176;2024-01-16T14:42:41;-1.32;59.52
76897;SHT30;65856;52.178;21.176;2024-01-16T14:45:12;-1.31;59.73
76897;SHT30;65856;52.178;21.176;2024-01-16T14:47:38;-1.28;60.01
76897;SHT30;65856;52.178;21.176;2024-01-16T14:50:04;-1.29;59.99
76897;SHT30;65856;52.178;21.176;2024-01-16T14:52:32;-1.31;60.09
76897;SHT30;65856;52.178;21.176;2024-01-16T14:54:58;-1.31;60.36
76897;SHT30;65856;52.178;21.176;2024-01-16T14:57:25;-1.28;60.75
76897;SHT30;65856;52.178;21.176;2024-01-16T14:59:50;-1.28;61.00
76897;SHT30;65856;52.178;21.176;2024-01-16T15:02:15;-1.29;60.63
76897;SHT30;65856;52.178;21.176;2024-01-16T15:04:41;-1.32;60.49
76897;SHT30;65856;52.178;21.176;2024-01-16T15:07:08;-1.38;60.43
76897;SHT30;65856;52.178;21.176;2024-01-16T15:09:34;-1.45;60.40
76897;SHT30;65856;52.178;21.176;2024-01-16T15:12:02;-1.48;60.62
76897;SHT30;65856;52.178;21.176;2024-01-16T15:14:34;-1.50;60.72
76897;SHT30;65856;52.178;21.176;2024-01-16T15:17:00;-1.54;60.61
76897;SHT30;65856;52.178;21.176;2024-01-16T15:19:28;-1.59;60.70
76897;SHT30;65856;52.178;21.176;2024-01-16T15:21:54;-1.69;60.73
76897;SHT30;65856;52.178;21.176;2024-01-16T15:24:19;-1.74;60.80
76897;SHT30;65856;52.178;21.176;2024-01-16T15:26:51;-1.77;60.98